createdAt,value
2017-03-14T00:00:14.625Z,0
2017-03-14T00:01:15.012Z,0
2017-03-14T00:02:14.991Z,0
2017-03-14T00:03:14.970Z,0
2017-03-14T00:04:14.577Z,0
2017-03-14T00:05:14.952Z,0
2017-03-14T00:06:14.933Z,0
2017-03-14T00:07:14.931Z,0
2017-03-14T00:08:14.917Z,0
2017-03-14T00:09:14.898Z,0
2017-03-14T00:10:14.880Z,0
2017-03-14T00:11:14.866Z,0
2017-03-14T00:12:14.851Z,0
2017-03-14T00:13:14.845Z,0
2017-03-14T00:14:14.829Z,0
2017-03-14T00:15:14.811Z,0
2017-03-14T00:16:14.419Z,0
2017-03-14T00:17:14.795Z,0
2017-03-14T00:18:14.787Z,0
2017-03-14T00:19:14.761Z,0
2017-03-14T00:20:14.758Z,0
2017-03-14T00:21:14.731Z,0
2017-03-14T00:22:14.718Z,0
2017-03-14T00:23:14.704Z,0
2017-03-14T00:24:14.691Z,0
2017-03-14T00:25:14.677Z,0
2017-03-14T00:26:14.660Z,0
2017-03-14T00:27:14.650Z,0
2017-03-14T00:28:14.639Z,0
2017-03-14T00:29:14.625Z,0
2017-03-14T00:30:14.605Z,0
2017-03-14T00:31:14.595Z,0
2017-03-14T00:32:14.581Z,0
2017-03-14T00:33:14.570Z,0
2017-03-14T00:34:14.167Z,0
2017-03-14T00:35:14.535Z,0
2017-03-14T00:36:14.522Z,0
2017-03-14T00:37:14.514Z,0
2017-03-14T00:38:14.501Z,0
2017-03-14T00:39:14.101Z,0
2017-03-14T00:40:14.472Z,0
2017-03-14T00:41:14.457Z,0
2017-03-14T00:42:14.468Z,0
2017-03-14T00:43:14.427Z,0
2017-03-14T00:44:14.027Z,0
2017-03-14T00:45:14.399Z,0
2017-03-14T00:46:14.386Z,0
2017-03-14T00:47:14.374Z,0
2017-03-14T00:48:14.352Z,0
2017-03-14T00:49:14.347Z,0
2017-03-14T00:50:14.332Z,0
2017-03-14T00:51:14.319Z,0
2017-03-14T00:52:14.305Z,0
2017-03-14T00:53:14.289Z,0
2017-03-14T00:54:13.888Z,0
2017-03-14T00:55:14.264Z,0
2017-03-14T00:56:13.865Z,0
2017-03-14T00:57:14.232Z,0
2017-03-14T00:58:14.220Z,0
2017-03-14T00:59:14.209Z,0
2017-03-14T01:00:13.804Z,0
2017-03-14T01:01:14.182Z,0
2017-03-14T01:02:13.779Z,0
2017-03-14T01:03:14.153Z,0
2017-03-14T01:04:14.136Z,0
2017-03-14T01:05:14.126Z,0
2017-03-14T01:06:13.722Z,0
2017-03-14T01:07:14.094Z,0
2017-03-14T01:08:14.084Z,0
2017-03-14T01:09:14.067Z,0
2017-03-14T01:10:14.059Z,0
2017-03-14T01:11:13.659Z,0
2017-03-14T01:12:13.638Z,0
2017-03-14T01:13:14.004Z,0
2017-03-14T01:14:13.606Z,0
2017-03-14T01:15:13.974Z,0
2017-03-14T01:16:13.966Z,0
2017-03-14T01:17:13.565Z,0
2017-03-14T01:18:14.237Z,0
2017-03-14T01:19:13.923Z,0
2017-03-14T01:20:13.519Z,0
2017-03-14T01:21:13.897Z,0
2017-03-14T01:22:13.886Z,0
2017-03-14T01:23:13.877Z,0
2017-03-14T01:24:13.858Z,0
2017-03-14T01:25:13.847Z,0
2017-03-14T01:26:13.833Z,0
2017-03-14T01:27:13.819Z,0
2017-03-14T01:28:13.798Z,0
2017-03-14T01:29:13.782Z,0
2017-03-14T01:30:13.792Z,0
2017-03-14T01:31:13.762Z,0
2017-03-14T01:32:13.747Z,0
2017-03-14T01:33:13.731Z,0
2017-03-14T01:34:13.351Z,0
2017-03-14T01:35:13.702Z,0
2017-03-14T01:36:13.699Z,0
2017-03-14T01:37:13.697Z,0
2017-03-14T01:38:13.276Z,0
2017-03-14T01:39:13.657Z,0
2017-03-14T01:40:13.248Z,0
2017-03-14T01:41:13.621Z,0
2017-03-14T01:42:13.607Z,0
2017-03-14T01:43:13.201Z,0
2017-03-14T01:44:13.576Z,0
2017-03-14T01:45:13.173Z,0
2017-03-14T01:46:13.547Z,0
2017-03-14T01:47:13.533Z,0
2017-03-14T01:48:13.145Z,0
2017-03-14T01:49:13.536Z,0
2017-03-14T01:50:13.494Z,0
2017-03-14T01:51:13.479Z,0
2017-03-14T01:52:13.078Z,0
2017-03-14T01:53:13.453Z,0
2017-03-14T01:54:13.438Z,0
2017-03-14T01:55:13.037Z,0
2017-03-14T01:56:13.413Z,0
2017-03-14T01:57:13.009Z,0
2017-03-14T01:58:12.994Z,0
2017-03-14T01:59:13.370Z,0
2017-03-14T02:00:12.582Z,0
2017-03-14T02:01:13.350Z,0
2017-03-14T02:02:13.341Z,0
2017-03-14T02:03:13.316Z,0
2017-03-14T02:04:12.918Z,0
2017-03-14T02:05:13.325Z,0
2017-03-14T02:06:13.274Z,0
2017-03-14T02:07:13.266Z,0
2017-03-14T02:08:13.280Z,0
2017-03-14T02:09:13.235Z,0
2017-03-14T02:10:13.222Z,0
2017-03-14T02:11:13.212Z,0
2017-03-14T02:12:12.803Z,0
2017-03-14T02:13:13.177Z,0
2017-03-14T02:14:13.168Z,0
2017-03-14T02:15:12.762Z,0
2017-03-14T02:16:13.146Z,0
2017-03-14T02:17:13.133Z,0
2017-03-14T02:18:13.112Z,0
2017-03-14T02:19:12.708Z,0
2017-03-14T02:20:13.086Z,0
2017-03-14T02:21:13.071Z,0
2017-03-14T02:22:12.669Z,0
2017-03-14T02:23:13.045Z,0
2017-03-14T02:24:12.644Z,0
2017-03-14T02:25:12.635Z,0
2017-03-14T02:26:13.002Z,0
2017-03-14T02:27:12.992Z,0
2017-03-14T02:28:12.979Z,0
2017-03-14T02:29:12.969Z,0
2017-03-14T02:30:12.943Z,0
2017-03-14T02:31:12.939Z,0
2017-03-14T02:32:12.541Z,0
2017-03-14T02:33:12.907Z,0
2017-03-14T02:34:12.889Z,0
2017-03-14T02:35:12.887Z,0
2017-03-14T02:36:12.873Z,0
2017-03-14T02:37:12.857Z,0
2017-03-14T02:38:12.837Z,0
2017-03-14T02:39:12.835Z,0
2017-03-14T02:40:12.816Z,0
2017-03-14T02:41:12.802Z,0
2017-03-14T02:42:12.400Z,0
2017-03-14T02:43:12.778Z,0
2017-03-14T02:44:12.376Z,0
2017-03-14T02:45:12.758Z,0
2017-03-14T02:46:12.373Z,0
2017-03-14T02:47:12.717Z,0
2017-03-14T02:48:12.717Z,0
2017-03-14T02:49:12.720Z,0
2017-03-14T02:50:12.694Z,0
2017-03-14T02:51:12.680Z,0
2017-03-14T02:52:12.267Z,0
2017-03-14T02:53:12.642Z,0
2017-03-14T02:54:12.245Z,0
2017-03-14T02:55:12.617Z,0
2017-03-14T02:56:12.214Z,0
2017-03-14T02:57:12.593Z,0
2017-03-14T02:58:12.585Z,0
2017-03-14T02:59:12.564Z,0
2017-03-14T03:00:12.166Z,0
2017-03-14T03:01:12.536Z,0
2017-03-14T03:02:12.530Z,0
2017-03-14T03:03:12.518Z,0
2017-03-14T03:04:12.137Z,0
2017-03-14T03:05:12.489Z,0
2017-03-14T03:06:12.084Z,0
2017-03-14T03:07:12.466Z,0
2017-03-14T03:08:12.450Z,0
2017-03-14T03:09:12.432Z,0
2017-03-14T03:10:12.423Z,0
2017-03-14T03:11:12.406Z,0
2017-03-14T03:12:12.007Z,0
2017-03-14T03:13:12.382Z,0
2017-03-14T03:14:12.371Z,0
2017-03-14T03:15:12.357Z,0
2017-03-14T03:16:11.952Z,0
2017-03-14T03:17:12.326Z,0
2017-03-14T03:18:11.929Z,0
2017-03-14T03:19:12.304Z,0
2017-03-14T03:20:11.903Z,0
2017-03-14T03:21:12.276Z,0
2017-03-14T03:22:12.260Z,0
2017-03-14T03:23:12.252Z,0
2017-03-14T03:24:11.854Z,0
2017-03-14T03:25:12.220Z,0
2017-03-14T03:26:11.826Z,0
2017-03-14T03:27:12.206Z,0
2017-03-14T03:28:11.802Z,0
2017-03-14T03:29:12.171Z,0
2017-03-14T03:30:12.161Z,0
2017-03-14T03:31:12.147Z,0
2017-03-14T03:32:12.157Z,0
2017-03-14T03:33:12.124Z,0
2017-03-14T03:34:12.137Z,0
2017-03-14T03:35:12.093Z,0
2017-03-14T03:36:11.699Z,0
2017-03-14T03:37:12.075Z,0
2017-03-14T03:38:11.668Z,0
2017-03-14T03:39:12.041Z,0
2017-03-14T03:40:12.028Z,0
2017-03-14T03:41:12.017Z,0
2017-03-14T03:42:12.002Z,0
2017-03-14T03:43:11.991Z,0
2017-03-14T03:44:11.593Z,0
2017-03-14T03:45:11.970Z,0
2017-03-14T03:46:11.952Z,0
2017-03-14T03:47:11.942Z,0
2017-03-14T03:48:11.966Z,0
2017-03-14T03:49:11.909Z,0
2017-03-14T03:50:11.524Z,0
2017-03-14T03:51:11.883Z,0
2017-03-14T03:52:11.874Z,0
2017-03-14T03:53:11.862Z,0
2017-03-14T03:54:11.464Z,0
2017-03-14T03:55:11.840Z,0
2017-03-14T03:56:11.828Z,0
2017-03-14T03:57:11.808Z,0
2017-03-14T03:58:11.794Z,0
2017-03-14T03:59:11.784Z,0
2017-03-14T04:00:11.395Z,0
2017-03-14T04:01:11.759Z,0
2017-03-14T04:02:11.354Z,0
2017-03-14T04:03:11.730Z,0
2017-03-14T04:04:11.727Z,0
2017-03-14T04:05:11.735Z,0
2017-03-14T04:06:11.711Z,0
2017-03-14T04:07:11.684Z,0
2017-03-14T04:08:11.669Z,0
2017-03-14T04:09:11.652Z,0
2017-03-14T04:10:11.253Z,0
2017-03-14T04:11:11.647Z,0
2017-03-14T04:12:11.615Z,0
2017-03-14T04:13:11.602Z,0
2017-03-14T04:14:11.588Z,0
2017-03-14T04:15:11.581Z,0
2017-03-14T04:16:11.568Z,0
2017-03-14T04:17:11.551Z,0
2017-03-14T04:18:11.551Z,0
2017-03-14T04:19:11.532Z,0
2017-03-14T04:20:11.127Z,0
2017-03-14T04:21:11.509Z,0
2017-03-14T04:22:11.100Z,0
2017-03-14T04:23:11.474Z,0
2017-03-14T04:24:11.458Z,0
2017-03-14T04:25:11.450Z,0
2017-03-14T04:26:11.445Z,0
2017-03-14T04:27:11.038Z,0
2017-03-14T04:28:11.405Z,0
2017-03-14T04:29:11.403Z,0
2017-03-14T04:30:10.997Z,0
2017-03-14T04:31:11.370Z,0
2017-03-14T04:32:11.362Z,0
2017-03-14T04:33:11.352Z,0
2017-03-14T04:34:11.329Z,0
2017-03-14T04:35:10.936Z,0
2017-03-14T04:36:11.317Z,0
2017-03-14T04:37:11.295Z,0
2017-03-14T04:38:10.891Z,0
2017-03-14T04:39:11.280Z,0
2017-03-14T04:40:10.097Z,0
2017-03-14T04:41:11.248Z,0
2017-03-14T04:42:10.856Z,0
2017-03-14T04:43:11.221Z,0
2017-03-14T04:44:10.835Z,0
2017-03-14T04:45:11.197Z,0
2017-03-14T04:46:11.185Z,0
2017-03-14T04:47:10.782Z,0
2017-03-14T04:48:10.390Z,0
2017-03-14T04:49:10.761Z,0
2017-03-14T04:50:11.133Z,0
2017-03-14T04:51:10.734Z,0
2017-03-14T04:52:11.109Z,0
2017-03-14T04:53:11.096Z,0
2017-03-14T04:54:11.087Z,0
2017-03-14T04:55:11.072Z,0
2017-03-14T04:56:11.055Z,0
2017-03-14T04:57:10.658Z,0
2017-03-14T04:58:11.025Z,0
2017-03-14T04:59:10.631Z,0
2017-03-14T05:00:10.237Z,0
2017-03-14T05:01:10.993Z,0
2017-03-14T05:02:10.984Z,0
2017-03-14T05:03:10.997Z,0
2017-03-14T05:04:10.961Z,0
2017-03-14T05:05:10.562Z,0
2017-03-14T05:06:10.930Z,0
2017-03-14T05:07:10.920Z,0
2017-03-14T05:08:10.908Z,0
2017-03-14T05:09:10.893Z,0
2017-03-14T05:10:10.495Z,0
2017-03-14T05:11:10.873Z,0
2017-03-14T05:12:10.469Z,0
2017-03-14T05:13:10.459Z,0
2017-03-14T05:14:10.836Z,0
2017-03-14T05:15:10.434Z,0
2017-03-14T05:16:10.431Z,0
2017-03-14T05:17:10.794Z,5
2017-03-14T05:18:10.793Z,5
2017-03-14T05:19:10.251Z,5
2017-03-14T05:20:10.374Z,5
2017-03-14T05:21:10.366Z,5
2017-03-14T05:22:10.352Z,5
2017-03-14T05:23:10.725Z,5
2017-03-14T05:24:10.325Z,10
2017-03-14T05:25:10.312Z,10
2017-03-14T05:26:10.301Z,10
2017-03-14T05:27:10.676Z,10
2017-03-14T05:28:10.659Z,10
2017-03-14T05:29:10.650Z,10
2017-03-14T05:30:10.250Z,10
2017-03-14T05:31:10.237Z,10
2017-03-14T05:32:10.613Z,15
2017-03-14T05:33:10.598Z,15
2017-03-14T05:34:10.201Z,15
2017-03-14T05:35:10.184Z,15
2017-03-14T05:36:10.169Z,15
2017-03-14T05:37:10.549Z,20
2017-03-14T05:38:10.537Z,20
2017-03-14T05:39:10.527Z,20
2017-03-14T05:40:10.519Z,25
2017-03-14T05:41:10.496Z,25
2017-03-14T05:42:10.481Z,25
2017-03-14T05:43:10.475Z,30
2017-03-14T05:44:10.077Z,30
2017-03-14T05:45:10.457Z,30
2017-03-14T05:46:10.448Z,35
2017-03-14T05:47:10.435Z,35
2017-03-14T05:48:10.414Z,35
2017-03-14T05:49:10.406Z,40
2017-03-14T05:50:10.393Z,40
2017-03-14T05:51:09.997Z,40
2017-03-14T05:52:10.395Z,45
2017-03-14T05:53:10.361Z,45
2017-03-14T05:54:09.991Z,50
2017-03-14T05:55:09.564Z,50
2017-03-14T05:56:10.322Z,55
2017-03-14T05:57:10.314Z,55
2017-03-14T05:58:09.914Z,60
2017-03-14T05:59:10.290Z,60
2017-03-14T06:00:09.920Z,60
2017-03-14T06:01:09.877Z,65
2017-03-14T06:02:10.254Z,70
2017-03-14T06:03:10.264Z,70
2017-03-14T06:04:10.233Z,75
2017-03-14T06:05:09.837Z,80
2017-03-14T06:06:09.822Z,80
2017-03-14T06:07:10.194Z,85
2017-03-14T06:08:10.183Z,85
2017-03-14T06:09:10.170Z,90
2017-03-14T06:10:10.161Z,95
2017-03-14T06:11:10.147Z,95
2017-03-14T06:12:10.148Z,100
2017-03-14T06:13:10.127Z,100
2017-03-14T06:14:10.123Z,105
2017-03-14T06:15:09.720Z,110
2017-03-14T06:16:09.322Z,110
2017-03-14T06:17:10.086Z,110
2017-03-14T06:18:10.071Z,115
2017-03-14T06:19:10.059Z,120
2017-03-14T06:20:10.059Z,125
2017-03-14T06:21:10.041Z,130
2017-03-14T06:22:10.032Z,135
2017-03-14T06:23:10.016Z,135
2017-03-14T06:24:10.007Z,140
2017-03-14T06:25:09.997Z,140
2017-03-14T06:26:09.984Z,140
2017-03-14T06:27:09.969Z,145
2017-03-14T06:28:09.572Z,150
2017-03-14T06:29:09.563Z,150
2017-03-14T06:30:09.553Z,155
2017-03-14T06:31:09.929Z,155
2017-03-14T06:32:09.920Z,160
2017-03-14T06:33:09.914Z,160
2017-03-14T06:34:09.513Z,165
2017-03-14T06:35:09.892Z,170
2017-03-14T06:36:09.491Z,175
2017-03-14T06:37:09.866Z,180
2017-03-14T06:38:09.858Z,180
2017-03-14T06:39:09.848Z,180
2017-03-14T06:40:09.449Z,185
2017-03-14T06:41:09.836Z,175
2017-03-14T06:42:09.424Z,175
2017-03-14T06:43:09.420Z,170
2017-03-14T06:44:09.794Z,170
2017-03-14T06:45:09.788Z,170
2017-03-14T06:46:09.771Z,175
2017-03-14T06:47:09.376Z,180
2017-03-14T06:48:09.759Z,190
2017-03-14T06:49:09.741Z,200
2017-03-14T06:50:09.357Z,210
2017-03-14T06:51:09.727Z,220
2017-03-14T06:52:09.716Z,230
2017-03-14T06:53:09.701Z,240
2017-03-14T06:54:09.693Z,250
2017-03-14T06:55:09.687Z,255
2017-03-14T06:56:09.305Z,260
2017-03-14T06:57:09.670Z,265
2017-03-14T06:58:09.655Z,270
2017-03-14T06:59:09.655Z,270
2017-03-14T07:00:09.889Z,270
2017-03-14T07:01:09.673Z,270
2017-03-14T07:02:09.622Z,270
2017-03-14T07:03:09.610Z,270
2017-03-14T07:04:09.216Z,270
2017-03-14T07:05:09.602Z,270
2017-03-14T07:06:09.582Z,275
2017-03-14T07:07:09.575Z,275
2017-03-14T07:08:09.583Z,280
2017-03-14T07:09:09.566Z,285
2017-03-14T07:10:09.549Z,290
2017-03-14T07:11:09.151Z,295
2017-03-14T07:12:09.539Z,315
2017-03-14T07:13:09.525Z,320
2017-03-14T07:14:09.516Z,335
2017-03-14T07:15:09.506Z,325
2017-03-14T07:16:09.114Z,320
2017-03-14T07:17:09.488Z,315
2017-03-14T07:18:09.478Z,300
2017-03-14T07:19:09.474Z,300
2017-03-14T07:20:09.460Z,300
2017-03-14T07:21:09.069Z,305
2017-03-14T07:22:09.450Z,330
2017-03-14T07:23:09.439Z,345
2017-03-14T07:24:09.431Z,345
2017-03-14T07:25:09.042Z,360
2017-03-14T07:26:09.418Z,385
2017-03-14T07:27:09.410Z,400
2017-03-14T07:28:09.409Z,375
2017-03-14T07:29:09.397Z,345
2017-03-14T07:30:08.611Z,310
2017-03-14T07:31:09.377Z,305
2017-03-14T07:32:09.374Z,305
2017-03-14T07:33:08.979Z,295
2017-03-14T07:34:08.969Z,290
2017-03-14T07:35:09.350Z,290
2017-03-14T07:36:09.348Z,305
2017-03-14T07:37:09.365Z,330
2017-03-14T07:38:09.326Z,340
2017-03-14T07:39:08.934Z,350
2017-03-14T07:40:08.540Z,365
2017-03-14T07:41:09.338Z,400
2017-03-14T07:42:08.916Z,410
2017-03-14T07:43:09.300Z,400
2017-03-14T07:44:09.289Z,385
2017-03-14T07:45:09.274Z,380
2017-03-14T07:46:08.879Z,375
2017-03-14T07:47:09.263Z,365
2017-03-14T07:48:09.264Z,365
2017-03-14T07:49:08.857Z,365
2017-03-14T07:50:09.241Z,360
2017-03-14T07:51:09.234Z,355
2017-03-14T07:52:09.235Z,360
2017-03-14T07:53:09.228Z,365
2017-03-14T07:54:08.824Z,380
2017-03-14T07:55:09.210Z,380
2017-03-14T07:56:09.204Z,380
2017-03-14T07:57:08.814Z,385
2017-03-14T07:58:09.191Z,390
2017-03-14T07:59:09.185Z,390
2017-03-14T08:00:08.822Z,375
2017-03-14T08:01:08.789Z,365
2017-03-14T08:02:08.389Z,365
2017-03-14T08:03:09.155Z,365
2017-03-14T08:04:09.167Z,375
2017-03-14T08:05:09.155Z,390
2017-03-14T08:06:09.168Z,410
2017-03-14T08:07:09.137Z,420
2017-03-14T08:08:08.738Z,435
2017-03-14T08:09:09.122Z,450
2017-03-14T08:10:09.123Z,445
2017-03-14T08:11:09.110Z,430
2017-03-14T08:12:09.103Z,415
2017-03-14T08:13:09.092Z,420
2017-03-14T08:14:09.087Z,420
2017-03-14T08:15:09.083Z,415
2017-03-14T08:16:09.077Z,420
2017-03-14T08:17:09.281Z,430
2017-03-14T08:18:09.070Z,415
2017-03-14T08:19:08.673Z,435
2017-03-14T08:20:08.663Z,465
2017-03-14T08:21:08.632Z,465
2017-03-14T08:22:09.044Z,475
2017-03-14T08:23:09.027Z,465
2017-03-14T08:24:08.648Z,465
2017-03-14T08:25:08.650Z,440
2017-03-14T08:26:08.631Z,415
2017-03-14T08:27:09.011Z,385
2017-03-14T08:28:08.614Z,355
2017-03-14T08:29:08.998Z,330
2017-03-14T08:30:08.614Z,355
2017-03-14T08:31:09.019Z,360
2017-03-14T08:32:08.979Z,325
2017-03-14T08:33:08.972Z,285
2017-03-14T08:34:08.968Z,270
2017-03-14T08:35:08.965Z,255
2017-03-14T08:36:08.955Z,270
2017-03-14T08:37:08.965Z,290
2017-03-14T08:38:08.945Z,315
2017-03-14T08:39:08.941Z,365
2017-03-14T08:40:08.928Z,380
2017-03-14T08:41:08.924Z,345
2017-03-14T08:42:08.925Z,330
2017-03-14T08:43:08.909Z,310
2017-03-14T08:44:08.901Z,290
2017-03-14T08:45:08.900Z,295
2017-03-14T08:46:08.511Z,325
2017-03-14T08:47:08.888Z,350
2017-03-14T08:48:08.495Z,385
2017-03-14T08:49:08.479Z,385
2017-03-14T08:50:08.476Z,385
2017-03-14T08:51:08.856Z,400
2017-03-14T08:52:08.850Z,415
2017-03-14T08:53:08.457Z,420
2017-03-14T08:54:08.839Z,385
2017-03-14T08:55:08.841Z,390
2017-03-14T08:56:08.830Z,420
2017-03-14T08:57:08.819Z,420
2017-03-14T08:58:08.816Z,415
2017-03-14T08:59:07.980Z,390
2017-03-14T09:00:08.811Z,395
2017-03-14T09:01:08.798Z,400
2017-03-14T09:02:08.401Z,380
2017-03-14T09:03:08.776Z,360
2017-03-14T09:04:08.387Z,345
2017-03-14T09:05:07.997Z,310
2017-03-14T09:06:08.376Z,265
2017-03-14T09:07:08.369Z,270
2017-03-14T09:08:08.362Z,315
2017-03-14T09:09:08.741Z,330
2017-03-14T09:10:08.739Z,335
2017-03-14T09:11:08.757Z,355
2017-03-14T09:12:08.720Z,385
2017-03-14T09:13:08.327Z,410
2017-03-14T09:14:08.711Z,435
2017-03-14T09:15:07.928Z,345
2017-03-14T09:16:07.922Z,305
2017-03-14T09:17:08.304Z,290
2017-03-14T09:18:08.700Z,290
2017-03-14T09:19:08.683Z,305
2017-03-14T09:20:08.283Z,335
2017-03-14T09:21:08.277Z,375
2017-03-14T09:22:08.270Z,415
2017-03-14T09:23:08.682Z,440
2017-03-14T09:24:08.647Z,480
2017-03-14T09:25:08.638Z,450
2017-03-14T09:26:37.494Z,375
2017-03-14T09:27:08.623Z,385
2017-03-14T09:28:08.234Z,460
2017-03-14T09:29:08.618Z,460
2017-03-14T09:30:08.611Z,435
2017-03-14T09:31:07.827Z,465
2017-03-14T09:32:08.597Z,505
2017-03-14T09:33:08.590Z,505
2017-03-14T09:34:08.024Z,530
2017-03-14T09:35:08.578Z,555
2017-03-14T09:36:08.581Z,520
2017-03-14T09:37:08.563Z,590
2017-03-14T09:38:08.560Z,510
2017-03-14T09:39:08.554Z,430
2017-03-14T09:40:08.165Z,415
2017-03-14T09:41:08.157Z,445
2017-03-14T09:42:07.380Z,475
2017-03-14T09:43:08.172Z,530
2017-03-14T09:44:08.526Z,505
2017-03-14T09:45:08.559Z,420
2017-03-14T09:46:08.525Z,445
2017-03-14T09:47:08.509Z,435
2017-03-14T09:48:08.507Z,410
2017-03-14T09:49:08.499Z,430
2017-03-14T09:50:08.498Z,490
2017-03-14T09:51:08.516Z,450
2017-03-14T09:52:08.097Z,405
2017-03-14T09:53:08.088Z,380
2017-03-14T09:54:07.701Z,385
2017-03-14T09:55:08.473Z,360
2017-03-14T09:56:08.470Z,350
2017-03-14T09:57:08.460Z,340
2017-03-14T09:58:08.457Z,365
2017-03-14T09:59:08.446Z,380
2017-03-14T10:00:08.442Z,380
2017-03-14T10:01:08.442Z,370
2017-03-14T10:02:08.437Z,370
2017-03-14T10:03:08.426Z,345
2017-03-14T10:04:08.431Z,340
2017-03-14T10:05:08.032Z,355
2017-03-14T10:06:06.867Z,360
2017-03-14T10:07:08.016Z,355
2017-03-14T10:08:08.013Z,335
2017-03-14T10:09:08.008Z,335
2017-03-14T10:10:07.614Z,330
2017-03-14T10:11:08.406Z,365
2017-03-14T10:12:07.989Z,395
2017-03-14T10:13:08.377Z,415
2017-03-14T10:14:07.594Z,380
2017-03-14T10:15:07.586Z,355
2017-03-14T10:16:07.972Z,405
2017-03-14T10:17:08.349Z,440
2017-03-14T10:18:08.364Z,435
2017-03-14T10:19:07.962Z,420
2017-03-14T10:20:07.561Z,400
2017-03-14T10:21:07.949Z,395
2017-03-14T10:22:07.918Z,455
2017-03-14T10:23:07.981Z,445
2017-03-14T10:24:07.978Z,420
2017-03-14T10:25:07.966Z,395
2017-03-14T10:26:07.661Z,385
2017-03-14T10:27:07.962Z,415
2017-03-14T10:28:07.654Z,460
2017-03-14T10:29:07.953Z,425
2017-03-14T10:30:07.944Z,425
2017-03-14T10:31:07.935Z,490
2017-03-14T10:32:07.940Z,510
2017-03-14T10:33:07.938Z,480
2017-03-14T10:34:07.619Z,485
2017-03-14T10:35:07.614Z,485
2017-03-14T10:36:07.612Z,485
2017-03-14T10:37:07.603Z,480
2017-03-14T10:38:07.596Z,455
2017-03-14T10:39:07.605Z,445
2017-03-14T10:40:07.583Z,425
2017-03-14T10:41:07.885Z,430
2017-03-14T10:42:07.884Z,430
2017-03-14T10:43:07.870Z,400
2017-03-14T10:44:07.865Z,390
2017-03-14T10:45:07.560Z,380
2017-03-14T10:46:07.556Z,360
2017-03-14T10:47:07.853Z,345
2017-03-14T10:48:07.847Z,365
2017-03-14T10:49:07.839Z,385
2017-03-14T10:50:07.838Z,420
2017-03-14T10:51:07.525Z,445
2017-03-14T10:52:07.823Z,475
2017-03-14T10:53:07.819Z,505
2017-03-14T10:54:07.818Z,525
2017-03-14T10:55:07.516Z,550
2017-03-14T10:56:07.502Z,570
2017-03-14T10:57:07.799Z,575
2017-03-14T10:58:07.795Z,575
2017-03-14T10:59:07.814Z,575
2017-03-14T11:00:07.784Z,570
2017-03-14T11:01:07.779Z,555
2017-03-14T11:02:07.777Z,535
2017-03-14T11:03:07.771Z,515
2017-03-14T11:04:07.761Z,505
2017-03-14T11:05:07.758Z,495
2017-03-14T11:06:07.453Z,475
2017-03-14T11:07:07.750Z,465
2017-03-14T11:08:07.440Z,435
2017-03-14T11:09:07.962Z,420
2017-03-14T11:10:07.443Z,405
2017-03-14T11:11:07.424Z,385
2017-03-14T11:12:07.730Z,365
2017-03-14T11:13:07.115Z,345
2017-03-14T11:14:07.719Z,350
2017-03-14T11:15:07.409Z,360
2017-03-14T11:16:07.095Z,365
2017-03-14T11:17:07.708Z,385
2017-03-14T11:18:07.396Z,370
2017-03-14T11:19:07.384Z,365
2017-03-14T11:20:07.379Z,325
2017-03-14T11:21:07.376Z,325
2017-03-14T11:22:07.674Z,360
2017-03-14T11:23:07.667Z,365
2017-03-14T11:24:07.361Z,350
2017-03-14T11:25:07.661Z,330
2017-03-14T11:26:07.660Z,325
2017-03-14T11:27:07.644Z,320
2017-03-14T11:28:07.641Z,320
2017-03-14T11:29:07.640Z,300
2017-03-14T11:30:07.634Z,290
2017-03-14T11:31:07.626Z,295
2017-03-14T11:32:07.318Z,290
2017-03-14T11:33:07.313Z,295
2017-03-14T11:34:07.305Z,315
2017-03-14T11:35:07.001Z,325
2017-03-14T11:36:07.598Z,300
2017-03-14T11:37:07.289Z,280
2017-03-14T11:38:06.985Z,275
2017-03-14T11:39:07.583Z,265
2017-03-14T11:40:06.972Z,275
2017-03-14T11:41:06.972Z,285
2017-03-14T11:42:07.568Z,305
2017-03-14T11:43:07.767Z,300
2017-03-14T11:44:07.561Z,330
2017-03-14T11:45:07.551Z,355
2017-03-14T11:46:07.544Z,390
2017-03-14T11:47:07.540Z,410
2017-03-14T11:48:07.228Z,380
2017-03-14T11:49:07.528Z,365
2017-03-14T11:50:07.521Z,355
2017-03-14T11:51:07.515Z,340
2017-03-14T11:52:07.206Z,330
2017-03-14T11:53:07.516Z,310
2017-03-14T11:54:07.197Z,295
2017-03-14T11:55:07.493Z,295
2017-03-14T11:56:07.184Z,295
2017-03-14T11:57:07.178Z,300
2017-03-14T11:58:07.474Z,320
2017-03-14T11:59:07.472Z,335
2017-03-14T12:00:07.467Z,345
2017-03-14T12:01:07.458Z,355
2017-03-14T12:02:07.461Z,365
2017-03-14T12:03:07.449Z,370
2017-03-14T12:04:07.142Z,380
2017-03-14T12:05:07.441Z,380
2017-03-14T12:06:07.685Z,400
2017-03-14T12:07:07.424Z,415
2017-03-14T12:08:07.428Z,435
2017-03-14T12:09:07.416Z,460
2017-03-14T12:10:07.413Z,485
2017-03-14T12:11:07.417Z,490
2017-03-14T12:12:07.402Z,470
2017-03-14T12:13:07.396Z,440
2017-03-14T12:14:07.399Z,420
2017-03-14T12:15:07.085Z,420
2017-03-14T12:16:07.387Z,445
2017-03-14T12:17:07.383Z,485
2017-03-14T12:18:07.384Z,520
2017-03-14T12:19:07.065Z,520
2017-03-14T12:20:07.365Z,490
2017-03-14T12:21:07.056Z,450
2017-03-14T12:22:07.051Z,430
2017-03-14T12:23:07.055Z,430
2017-03-14T12:24:07.073Z,435
2017-03-14T12:25:07.043Z,455
2017-03-14T12:26:07.038Z,430
2017-03-14T12:27:07.054Z,390
2017-03-14T12:28:07.030Z,375
2017-03-14T12:29:07.325Z,350
2017-03-14T12:30:07.019Z,350
2017-03-14T12:31:07.318Z,385
2017-03-14T12:32:07.017Z,380
2017-03-14T12:33:07.312Z,390
2017-03-14T12:34:07.311Z,425
2017-03-14T12:35:07.303Z,450
2017-03-14T12:36:07.300Z,450
2017-03-14T12:37:06.997Z,455
2017-03-14T12:38:06.995Z,470
2017-03-14T12:39:07.289Z,465
2017-03-14T12:40:07.289Z,455
2017-03-14T12:41:07.281Z,450
2017-03-14T12:42:06.976Z,440
2017-03-14T12:43:07.272Z,405
2017-03-14T12:44:07.278Z,400
2017-03-14T12:45:07.269Z,375
2017-03-14T12:46:07.269Z,360
2017-03-14T12:47:07.263Z,360
2017-03-14T12:48:06.958Z,355
2017-03-14T12:49:07.255Z,360
2017-03-14T12:50:07.249Z,370
2017-03-14T12:51:07.249Z,350
2017-03-14T12:52:07.275Z,320
2017-03-14T12:53:07.243Z,285
2017-03-14T12:54:07.240Z,260
2017-03-14T12:55:07.231Z,260
2017-03-14T12:56:07.231Z,265
2017-03-14T12:57:07.227Z,265
2017-03-14T12:58:07.225Z,260
2017-03-14T12:59:07.227Z,255
2017-03-14T13:00:07.220Z,255
2017-03-14T13:01:07.210Z,280
2017-03-14T13:02:07.204Z,300
2017-03-14T13:03:06.897Z,285
2017-03-14T13:04:07.203Z,280
2017-03-14T13:05:07.237Z,295
2017-03-14T13:06:07.191Z,310
2017-03-14T13:07:07.187Z,285
2017-03-14T13:08:07.186Z,270
2017-03-14T13:09:06.881Z,265
2017-03-14T13:10:07.174Z,250
2017-03-14T13:11:07.174Z,250
2017-03-14T13:12:07.181Z,260
2017-03-14T13:13:07.168Z,270
2017-03-14T13:14:07.157Z,270
2017-03-14T13:15:07.155Z,255
2017-03-14T13:16:06.850Z,245
2017-03-14T13:17:07.148Z,230
2017-03-14T13:18:06.840Z,205
2017-03-14T13:19:06.835Z,200
2017-03-14T13:20:06.829Z,205
2017-03-14T13:21:07.129Z,195
2017-03-14T13:22:06.826Z,195
2017-03-14T13:23:06.819Z,215
2017-03-14T13:24:07.124Z,235
2017-03-14T13:25:07.115Z,240
2017-03-14T13:26:06.801Z,235
2017-03-14T13:27:07.109Z,225
2017-03-14T13:28:06.822Z,210
2017-03-14T13:29:06.791Z,200
2017-03-14T13:30:07.089Z,200
2017-03-14T13:31:07.088Z,205
2017-03-14T13:32:06.782Z,215
2017-03-14T13:33:06.776Z,220
2017-03-14T13:34:07.079Z,220
2017-03-14T13:35:07.066Z,220
2017-03-14T13:36:07.065Z,210
2017-03-14T13:37:07.056Z,200
2017-03-14T13:38:07.050Z,185
2017-03-14T13:39:07.049Z,170
2017-03-14T13:40:07.047Z,170
2017-03-14T13:41:06.734Z,175
2017-03-14T13:42:06.730Z,165
2017-03-14T13:43:06.726Z,150
2017-03-14T13:44:06.716Z,150
2017-03-14T13:45:06.711Z,165
2017-03-14T13:46:06.709Z,165
2017-03-14T13:47:06.707Z,175
2017-03-14T13:48:06.702Z,175
2017-03-14T13:49:06.993Z,165
2017-03-14T13:50:07.007Z,165
2017-03-14T13:51:06.683Z,215
2017-03-14T13:52:06.982Z,300
2017-03-14T13:53:06.977Z,335
2017-03-14T13:54:06.674Z,330
2017-03-14T13:55:06.968Z,320
2017-03-14T13:56:06.965Z,315
2017-03-14T13:57:06.955Z,310
2017-03-14T13:58:06.956Z,295
2017-03-14T13:59:06.645Z,280
2017-03-14T14:00:06.941Z,265
2017-03-14T14:01:06.934Z,260
2017-03-14T14:02:06.937Z,260
2017-03-14T14:03:06.935Z,255
2017-03-14T14:04:06.926Z,250
2017-03-14T14:05:06.616Z,235
2017-03-14T14:06:06.917Z,215
2017-03-14T14:07:06.912Z,195
2017-03-14T14:08:06.912Z,185
2017-03-14T14:09:06.897Z,185
2017-03-14T14:10:06.896Z,195